»·PEaware :: AAL576 KDEN-KJAC

AAL576 :: KDEN-KJAC

FLIGHT INFORMATION

Flight Status: Arrived
Operator:
American Airlines
More flights by this operator :: More flights under this callsign
Pilot: Anonymous 8274 (8274)
Aircraft: BOEING 737-300
(B733)
More flights by this aircraft type
Origin: KDEN Denver Intl
United States
Destination: KJAC Jackson Hole
United States
More flights between these airports :: More routes between these airports
Route: +DDRTH1 DDRTH Q150 GANNE DNW
File this flight plan on PilotEdge
Remarks:
Altitude:
(Current/Filed)
32,000ft
Speed:
(Current/Filed)
459kts
Departed: 29-Oct-20 05:30 PM
Arrived: 29-Oct-20 06:33 PM
Distance/Time
Traveled:
352nm/1:03
Distance/Time
To Go:
Arrived

Flight Plot

Page will automatically refresh every two minutes.

Flight plan parsing failed; only flown route is shown


Map Options




Map Legend


Flown Route
Filed Route
Departure Airport
Arrival Airport
Navaid (VOR, NDB)
Fix

Horizontal Profiles

Position Reports

Time Latitude Longitude Heading Altitude Ground
Speed
29-Oct-20 16:36 39.853355 -104.676120 360 5378ft 0kts
29-Oct-20 16:37 39.853355 -104.676120 360 5378ft 0kts
29-Oct-20 16:38 39.853355 -104.676120 360 5378ft 0kts
29-Oct-20 16:39 39.853355 -104.676120 360 5378ft 0kts
29-Oct-20 16:40 39.853355 -104.676120 360 5378ft 0kts
29-Oct-20 16:41 39.853355 -104.676120 360 5378ft 0kts
29-Oct-20 16:42 39.853355 -104.676120 360 5378ft 0kts
29-Oct-20 16:43 39.853355 -104.676120 360 5378ft 0kts
29-Oct-20 16:44 39.853355 -104.676120 360 5378ft 0kts
29-Oct-20 16:45 39.853355 -104.676120 360 5378ft 0kts
29-Oct-20 16:46 39.853355 -104.676120 360 5378ft 0kts
29-Oct-20 16:47 39.853355 -104.676120 360 5378ft 0kts
29-Oct-20 16:48 39.853355 -104.676120 360 5378ft 0kts
29-Oct-20 16:49 39.853355 -104.676120 360 5378ft 0kts
29-Oct-20 16:50 39.853355 -104.676120 360 5378ft 0kts
29-Oct-20 16:51 39.853355 -104.676120 360 5378ft 0kts
29-Oct-20 16:52 39.853355 -104.676120 360 5378ft 0kts
29-Oct-20 16:53 39.853355 -104.676120 360 5378ft 0kts
29-Oct-20 16:54 39.853355 -104.676120 360 5378ft 0kts
29-Oct-20 16:55 39.853355 -104.676120 360 5378ft 0kts
29-Oct-20 16:56 39.853355 -104.676120 360 5378ft 0kts
29-Oct-20 16:57 39.853355 -104.676120 360 5378ft 0kts
29-Oct-20 16:58 39.853355 -104.676120 360 5378ft 0kts
29-Oct-20 16:59 39.853355 -104.676120 360 5378ft 0kts
29-Oct-20 17:00 39.853355 -104.676120 0 5378ft 0kts
29-Oct-20 17:01 39.852904 -104.676121 16 5378ft 1kts
29-Oct-20 17:02 39.852789 -104.676414 92 5378ft 0kts
29-Oct-20 17:03 39.852789 -104.676413 92 5378ft 0kts
29-Oct-20 17:04 39.852789 -104.676413 92 5378ft 0kts
29-Oct-20 17:05 39.852789 -104.676413 92 5378ft 0kts
29-Oct-20 17:06 39.852789 -104.676403 92 5378ft 0kts
29-Oct-20 17:07 39.852774 -104.675977 91 5378ft 0kts
29-Oct-20 17:08 39.852765 -104.674355 89 5378ft 7kts
29-Oct-20 17:09 39.852769 -104.670343 88 5378ft 15kts
29-Oct-20 17:10 39.853277 -104.666547 116 5380ft 5kts
29-Oct-20 17:11 39.852950 -104.664825 89 5386ft 0kts
29-Oct-20 17:12 39.852950 -104.664825 89 5386ft 0kts
29-Oct-20 17:13 39.852950 -104.664825 89 5386ft 0kts
29-Oct-20 17:14 39.852950 -104.664825 89 5386ft 0kts
29-Oct-20 17:15 39.852950 -104.664825 89 5386ft 0kts
29-Oct-20 17:16 39.852950 -104.664825 89 5386ft 0kts
29-Oct-20 17:17 39.852932 -104.664144 98 5387ft 12kts
29-Oct-20 17:18 39.852403 -104.665763 284 5379ft 8kts
29-Oct-20 17:19 39.852364 -104.671196 269 5378ft 19kts
29-Oct-20 17:20 39.852389 -104.678408 270 5378ft 18kts
29-Oct-20 17:21 39.851871 -104.683770 230 5371ft 10kts
29-Oct-20 17:22 39.848244 -104.684078 180 5369ft 18kts
29-Oct-20 17:23 39.842723 -104.684147 180 5365ft 20kts
29-Oct-20 17:24 39.841927 -104.684153 179 5365ft 0kts
29-Oct-20 17:25 39.841927 -104.684153 179 5365ft 0kts
29-Oct-20 17:26 39.841927 -104.684153 179 5365ft 0kts
29-Oct-20 17:27 39.841927 -104.684153 179 5365ft 0kts
29-Oct-20 17:28 39.841049 -104.684154 180 5365ft 10kts
29-Oct-20 17:29 39.840782 -104.703677 269 5365ft 150kts
29-Oct-20 17:30 39.842489 -104.766011 272 6943ft 179kts
29-Oct-20 17:31 39.850063 -104.841898 311 8418ft 242kts
29-Oct-20 17:32 39.915233 -104.892864 329 9997ft 290kts
29-Oct-20 17:33 39.993144 -104.948167 330 10697ft 344kts
29-Oct-20 17:34 40.086204 -104.936110 13 13709ft 361kts
29-Oct-20 17:35 40.171413 -104.858398 36 16113ft 390kts
29-Oct-20 17:36 40.268935 -104.826314 350 18365ft 379kts
29-Oct-20 17:37 40.375188 -104.843922 345 20564ft 390kts
29-Oct-20 17:38 40.480444 -104.881696 328 22495ft 395kts
29-Oct-20 17:39 40.580434 -104.947669 330 24245ft 409kts
29-Oct-20 17:40 40.683979 -105.014970 330 25927ft 421kts
29-Oct-20 17:42 40.784360 -105.094132 304 27456ft 420kts
29-Oct-20 17:43 40.855677 -105.218977 306 29130ft 423kts
29-Oct-20 17:44 40.928922 -105.341613 306 30906ft 419kts
29-Oct-20 17:45 41.000977 -105.462722 306 32270ft 419kts
29-Oct-20 17:46 41.073695 -105.585271 306 32287ft 420kts
29-Oct-20 17:47 41.145104 -105.705880 305 32283ft 419kts
29-Oct-20 17:48 41.216927 -105.827887 305 32286ft 420kts
29-Oct-20 17:49 41.288892 -105.950616 305 32303ft 419kts
29-Oct-20 17:50 41.360627 -106.073454 305 32296ft 422kts
29-Oct-20 17:51 41.432616 -106.197211 305 32259ft 422kts
29-Oct-20 17:52 41.504799 -106.320894 306 32248ft 422kts
29-Oct-20 17:53 41.578145 -106.443860 306 32249ft 422kts
29-Oct-20 17:54 41.651647 -106.567387 306 32248ft 422kts
29-Oct-20 17:55 41.725228 -106.691677 305 32240ft 423kts
29-Oct-20 17:56 41.798342 -106.815689 305 32249ft 423kts
29-Oct-20 17:57 41.871872 -106.940791 305 32268ft 424kts
29-Oct-20 17:58 41.945189 -107.066054 305 32281ft 425kts
29-Oct-20 17:59 42.018142 -107.191203 306 32277ft 421kts
29-Oct-20 18:00 42.090013 -107.315021 305 32234ft 420kts
29-Oct-20 18:00 42.149647 -107.417724 306 32240ft 421kts
29-Oct-20 18:02 42.233963 -107.564058 305 32240ft 423kts
29-Oct-20 18:02 42.294233 -107.669183 305 32218ft 423kts
29-Oct-20 18:04 42.378186 -107.816388 305 32240ft 423kts
29-Oct-20 18:04 42.437834 -107.921267 305 32239ft 423kts
29-Oct-20 18:06 42.521415 -108.068848 305 32233ft 424kts
29-Oct-20 18:06 42.581312 -108.175053 305 32216ft 424kts
29-Oct-20 18:07 42.652901 -108.302492 305 32195ft 424kts
29-Oct-20 18:08 42.724049 -108.429688 305 32186ft 423kts
29-Oct-20 18:09 42.794977 -108.557030 305 32183ft 421kts
29-Oct-20 18:10 42.865710 -108.684661 304 32170ft 421kts
29-Oct-20 18:11 42.936038 -108.812160 305 32185ft 421kts
29-Oct-20 18:12 43.006256 -108.939861 305 32184ft 421kts
29-Oct-20 18:13 43.076509 -109.068174 305 32237ft 420kts
29-Oct-20 18:14 43.146757 -109.196614 305 32303ft 421kts
29-Oct-20 18:15 43.216748 -109.325481 305 32029ft 417kts
29-Oct-20 18:16 43.286426 -109.454423 305 28675ft 422kts
29-Oct-20 18:17 43.356801 -109.579028 308 26286ft 402kts
29-Oct-20 18:18 43.427283 -109.691284 308 24461ft 394kts
29-Oct-20 18:19 43.497481 -109.802813 308 23251ft 362kts
29-Oct-20 18:20 43.565356 -109.910969 309 20030ft 369kts
29-Oct-20 18:21 43.630028 -110.014596 309 18161ft 343kts
29-Oct-20 18:22 43.691265 -110.113137 309 15922ft 334kts
29-Oct-20 18:23 43.750138 -110.208171 309 14197ft 323kts
29-Oct-20 18:24 43.806332 -110.299148 309 14039ft 279kts
29-Oct-20 18:25 43.824127 -110.394216 268 14020ft 242kts
29-Oct-20 18:26 43.817606 -110.485818 267 12594ft 237kts
29-Oct-20 18:27 43.799962 -110.573213 247 10560ft 243kts
29-Oct-20 18:28 43.763193 -110.642251 220 9608ft 202kts
29-Oct-20 18:29 43.718708 -110.683339 199 8457ft 190kts
29-Oct-20 18:30 43.671247 -110.706370 201 7694ft 161kts
29-Oct-20 18:31 43.628799 -110.727380 198 6774ft 161kts
29-Oct-20 18:32 43.599765 -110.741108 145 6419ft 14kts
29-Oct-20 18:33 43.599533 -110.740153 60 6419ft 0kts
29-Oct-20 18:34 43.599542 -110.740129 62 6419ft 1kts
29-Oct-20 18:35 43.601172 -110.739157 19 6423ft 7kts
29-Oct-20 18:36 43.603310 -110.738110 19 6429ft 5kts
29-Oct-20 18:37 43.603493 -110.737108 110 6429ft 0kts
29-Oct-20 18:38 43.603493 -110.737108 110 6429ft 0kts
29-Oct-20 18:39 43.603493 -110.737108 110 6429ft 0kts

Navigation Log

Ident Type
Flight plan parsing failed, navigation log unavailable